createdAt,value
2018-09-29T00:00:00.409Z,1020
2018-09-29T00:01:02.476Z,1019.9
2018-09-29T00:02:04.495Z,1020
2018-09-29T00:03:06.547Z,1020
2018-09-29T00:04:08.559Z,1019.9
2018-09-29T00:05:10.592Z,1020
2018-09-29T00:06:12.617Z,1020
2018-09-29T00:07:14.643Z,1020
2018-09-29T00:08:16.671Z,1019.9
2018-09-29T00:09:18.675Z,1020
2018-09-29T00:10:20.797Z,1020
2018-09-29T00:11:22.755Z,1020
2018-09-29T00:12:24.778Z,1020
2018-09-29T00:13:27.082Z,1020
2018-09-29T00:14:29.490Z,1020
2018-09-29T00:15:31.532Z,1020
2018-09-29T00:16:33.577Z,1020
2018-09-29T00:17:35.614Z,1020
2018-09-29T00:18:37.625Z,1020
2018-09-29T00:19:39.689Z,1020
2018-09-29T00:20:41.709Z,1020
2018-09-29T00:21:43.744Z,1020
2018-09-29T00:22:45.759Z,1020
2018-09-29T00:23:47.824Z,1020.1
2018-09-29T00:24:50.119Z,1020
2018-09-29T00:25:52.147Z,1020.1
2018-09-29T00:26:54.191Z,1020.1
2018-09-29T00:27:56.216Z,1020.1
2018-09-29T00:28:58.233Z,1020.2
2018-09-29T00:30:00.559Z,1020.2
2018-09-29T00:31:02.597Z,1020.2
2018-09-29T00:32:04.913Z,1020.1
2018-09-29T00:33:07.004Z,1020.2
2018-09-29T00:34:09.015Z,1020.2
2018-09-29T00:35:11.062Z,1020.1
2018-09-29T00:36:13.372Z,1020.2
2018-09-29T00:37:15.399Z,1020.1
2018-09-29T00:38:17.700Z,1020.1
2018-09-29T00:39:19.729Z,1020.1
2018-09-29T00:40:22.059Z,1020
2018-09-29T00:41:24.104Z,1020
2018-09-29T00:42:26.440Z,1020
2018-09-29T00:43:28.465Z,1020
2018-09-29T00:44:30.483Z,1020
2018-09-29T00:45:32.520Z,1020
2018-09-29T00:46:34.551Z,1020.1
2018-09-29T00:47:36.580Z,1020.1
2018-09-29T00:48:38.921Z,1020.1
2018-09-29T00:49:40.966Z,1020
2018-09-29T00:50:43.270Z,1020
2018-09-29T00:51:45.296Z,1019.9
2018-09-29T00:52:47.705Z,1019.9
2018-09-29T00:53:50.016Z,1019.9
2018-09-29T00:54:52.054Z,1019.9
2018-09-29T00:55:54.071Z,1019.9
2018-09-29T00:56:56.421Z,1019.9
2018-09-29T00:57:58.432Z,1019.9
2018-09-29T00:59:00.487Z,1019.9
2018-09-29T01:00:02.519Z,1020
2018-09-29T01:01:04.846Z,1020
2018-09-29T01:02:07.308Z,1020
2018-09-29T01:03:09.327Z,1020
2018-09-29T01:04:11.339Z,1020
2018-09-29T01:05:13.651Z,1020
2018-09-29T01:06:15.685Z,1019.9
2018-09-29T01:07:17.691Z,1020
2018-09-29T01:08:19.716Z,1019.9
2018-09-29T01:09:21.731Z,1019.9
2018-09-29T01:10:23.798Z,1020
2018-09-29T01:11:26.095Z,1020
2018-09-29T01:12:28.121Z,1020
2018-09-29T01:13:30.144Z,1020
2018-09-29T01:14:32.158Z,1020
2018-09-29T01:15:34.217Z,1020
2018-09-29T01:16:36.231Z,1020
2018-09-29T01:17:38.250Z,1020
2018-09-29T01:18:40.265Z,1020.1
2018-09-29T01:19:42.294Z,1020.1
2018-09-29T01:20:44.383Z,1020
2018-09-29T01:21:46.704Z,1020.1
2018-09-29T01:22:48.773Z,1020.1
2018-09-29T01:23:51.085Z,1020.1
2018-09-29T01:24:53.116Z,1020.1
2018-09-29T01:25:55.136Z,1020.1
2018-09-29T01:26:57.536Z,1020.1
2018-09-29T01:27:59.894Z,1020.1
2018-09-29T01:29:01.934Z,1020.1
2018-09-29T01:30:04.883Z,1020.1
2018-09-29T01:31:06.901Z,1020
2018-09-29T01:32:09.274Z,1020.1
2018-09-29T01:33:11.594Z,1020.1
2018-09-29T01:34:13.618Z,1020.1
2018-09-29T01:35:16.023Z,1020.1
2018-09-29T01:36:18.726Z,1020.1
2018-09-29T01:37:20.737Z,1020.1
2018-09-29T01:38:22.755Z,1020.2
2018-09-29T01:39:24.823Z,1020.2
2018-09-29T01:40:26.838Z,1020.2
2018-09-29T01:41:28.865Z,1020.2
2018-09-29T01:42:31.181Z,1020.2
2018-09-29T01:43:33.595Z,1020.2
2018-09-29T01:44:35.613Z,1020.2
2018-09-29T01:45:37.642Z,1020.2
2018-09-29T01:46:39.741Z,1020.2
2018-09-29T01:47:41.752Z,1020.2
2018-09-29T01:48:44.173Z,1020.2
2018-09-29T01:49:46.565Z,1020.3
2018-09-29T01:50:48.581Z,1020.2
2018-09-29T01:51:50.981Z,1020.2
2018-09-29T01:52:53.007Z,1020.2
2018-09-29T01:53:55.315Z,1020.1
2018-09-29T01:54:57.400Z,1020.1
2018-09-29T01:55:59.437Z,1020.1
2018-09-29T01:57:01.526Z,1020.2
2018-09-29T01:58:03.559Z,1020.1
2018-09-29T01:59:05.867Z,1020.1
2018-09-29T02:00:07.913Z,1020.2
2018-09-29T02:01:09.931Z,1020.1
2018-09-29T02:02:11.953Z,1020.2
2018-09-29T02:03:14.352Z,1020.2
2018-09-29T02:04:16.771Z,1020.2
2018-09-29T02:05:19.173Z,1020.3
2018-09-29T02:06:21.522Z,1020.3
2018-09-29T02:07:23.543Z,1020.3
2018-09-29T02:08:25.577Z,1020.3
2018-09-29T02:09:27.696Z,1020.2
2018-09-29T02:10:30.026Z,1020.2
2018-09-29T02:11:32.118Z,1020.2
2018-09-29T02:12:34.150Z,1020.2
2018-09-29T02:13:36.159Z,1020.2
2018-09-29T02:14:38.502Z,1020.1
2018-09-29T02:15:40.522Z,1020.1
2018-09-29T02:16:42.547Z,1020.1
2018-09-29T02:17:44.893Z,1020.1
2018-09-29T02:18:46.919Z,1020.1
2018-09-29T02:19:48.944Z,1020.1
2018-09-29T02:20:51.034Z,1020.2
2018-09-29T02:21:53.063Z,1020.1
2018-09-29T02:22:55.425Z,1020.2
2018-09-29T02:23:57.540Z,1020.2
2018-09-29T02:24:59.553Z,1020.2
2018-09-29T02:26:01.579Z,1020.2
2018-09-29T02:27:03.677Z,1020.2
2018-09-29T02:28:05.702Z,1020.2
2018-09-29T02:29:07.728Z,1020.2
2018-09-29T02:30:09.837Z,1020.3
2018-09-29T02:31:12.828Z,1020.2
2018-09-29T02:32:15.135Z,1020.2
2018-09-29T02:33:17.159Z,1020.3
2018-09-29T02:34:19.183Z,1020.3
2018-09-29T02:35:21.603Z,1020.3
2018-09-29T02:36:23.908Z,1020.2
2018-09-29T02:37:26.900Z,1020.2
2018-09-29T02:38:29.502Z,1020.2
2018-09-29T02:39:31.516Z,1020.2
2018-09-29T02:40:33.542Z,1020.2
2018-09-29T02:41:35.760Z,1020.2
2018-09-29T02:42:38.090Z,1020.2
2018-09-29T02:43:40.113Z,1020.2
2018-09-29T02:44:42.140Z,1020.2
2018-09-29T02:45:44.446Z,1020.2
2018-09-29T02:46:46.476Z,1020.2
2018-09-29T02:47:48.890Z,1020.2
2018-09-29T02:48:51.243Z,1020.2
2018-09-29T02:49:53.939Z,1020.2
2018-09-29T02:50:56.026Z,1020.2
2018-09-29T02:51:58.352Z,1020.3
2018-09-29T02:53:00.671Z,1020.2
2018-09-29T02:54:02.702Z,1020.2
2018-09-29T02:55:05.125Z,1020.2
2018-09-29T02:56:07.462Z,1020.2
2018-09-29T02:57:09.865Z,1020.2
2018-09-29T02:58:11.893Z,1020.3
2018-09-29T02:59:13.911Z,1020.2
2018-09-29T03:00:16.223Z,1020.2
2018-09-29T03:01:18.240Z,1020.3
2018-09-29T03:02:20.644Z,1020.3
2018-09-29T03:03:22.812Z,1020.3
2018-09-29T03:04:25.111Z,1020.3
2018-09-29T03:05:27.132Z,1020.3
2018-09-29T03:06:29.159Z,1020.3
2018-09-29T03:07:31.910Z,1020.3
2018-09-29T03:08:34.211Z,1020.3
2018-09-29T03:09:36.235Z,1020.3
2018-09-29T03:10:38.249Z,1020.3
2018-09-29T03:11:40.572Z,1020.3
2018-09-29T03:12:42.740Z,1020.3
2018-09-29T03:13:45.049Z,1020.3
2018-09-29T03:14:47.060Z,1020.3
2018-09-29T03:15:49.084Z,1020.3
2018-09-29T03:16:51.510Z,1020.3
2018-09-29T03:17:53.845Z,1020.3
2018-09-29T03:18:55.868Z,1020.3
2018-09-29T03:19:57.920Z,1020.3
2018-09-29T03:20:59.956Z,1020.2
2018-09-29T03:22:01.974Z,1020.3
2018-09-29T03:23:04.020Z,1020.2
2018-09-29T03:24:06.454Z,1020.2
2018-09-29T03:25:08.762Z,1020.2
2018-09-29T03:26:10.895Z,1020.3
2018-09-29T03:27:12.918Z,1020.3
2018-09-29T03:28:14.928Z,1020.3
2018-09-29T03:29:16.969Z,1020.3
2018-09-29T03:30:19.285Z,1020.3
2018-09-29T03:31:21.327Z,1020.3
2018-09-29T03:32:23.325Z,1020.3
2018-09-29T03:33:25.349Z,1020.2
2018-09-29T03:34:27.365Z,1020.2
2018-09-29T03:35:29.679Z,1020.3
2018-09-29T03:36:31.715Z,1020.3
2018-09-29T03:37:33.721Z,1020.3
2018-09-29T03:38:35.743Z,1020.3
2018-09-29T03:39:38.379Z,1020.3
2018-09-29T03:40:40.396Z,1020.3
2018-09-29T03:41:42.797Z,1020.3
2018-09-29T03:42:44.827Z,1020.3
2018-09-29T03:43:46.844Z,1020.3
2018-09-29T03:44:49.817Z,1020.3
2018-09-29T03:45:52.226Z,1020.3
2018-09-29T03:46:54.548Z,1020.4
2018-09-29T03:47:56.564Z,1020.4
2018-09-29T03:48:58.970Z,1020.3
2018-09-29T03:50:00.988Z,1020.3
2018-09-29T03:51:03.612Z,1020.4
2018-09-29T03:52:05.631Z,1020.3
2018-09-29T03:53:07.637Z,1020.3
2018-09-29T03:54:09.940Z,1020.3
2018-09-29T03:55:11.956Z,1020.3
2018-09-29T03:56:14.289Z,1020.3
2018-09-29T03:57:16.610Z,1020.2
2018-09-29T03:58:19.027Z,1020.2
2018-09-29T03:59:21.054Z,1020.2
2018-09-29T04:00:23.349Z,1020.2
2018-09-29T04:01:25.372Z,1020.2
2018-09-29T04:02:27.392Z,1020.2
2018-09-29T04:03:29.417Z,1020.2
2018-09-29T04:04:31.717Z,1020.2
2018-09-29T04:05:33.731Z,1020.2
2018-09-29T04:06:35.773Z,1020.3
2018-09-29T04:07:37.773Z,1020.2
2018-09-29T04:08:39.787Z,1020.3
2018-09-29T04:09:42.150Z,1020.3
2018-09-29T04:10:44.835Z,1020.3
2018-09-29T04:11:47.158Z,1020.3
2018-09-29T04:12:49.479Z,1020.3
2018-09-29T04:13:52.611Z,1020.3
2018-09-29T04:14:54.562Z,1020.3
2018-09-29T04:15:56.585Z,1020.2
2018-09-29T04:16:58.596Z,1020.2
2018-09-29T04:18:00.903Z,1020.2
2018-09-29T04:19:03.613Z,1020.2
2018-09-29T04:20:05.631Z,1020.2
2018-09-29T04:21:07.649Z,1020.2
2018-09-29T04:22:09.956Z,1020.2
2018-09-29T04:23:11.970Z,1020.2
2018-09-29T04:24:13.988Z,1020.2
2018-09-29T04:25:16.012Z,1020.2
2018-09-29T04:26:18.403Z,1020.2
2018-09-29T04:27:21.302Z,1020.2
2018-09-29T04:28:23.325Z,1020.3
2018-09-29T04:29:25.351Z,1020.3
2018-09-29T04:30:27.366Z,1020.3
2018-09-29T04:31:29.393Z,1020.4
2018-09-29T04:32:31.415Z,1020.4
2018-09-29T04:33:33.843Z,1020.3
2018-09-29T04:34:35.872Z,1020.3
2018-09-29T04:35:37.882Z,1020.4
2018-09-29T04:36:40.191Z,1020.3
2018-09-29T04:37:42.485Z,1020.4
2018-09-29T04:38:44.799Z,1020.4
2018-09-29T04:39:46.814Z,1020.4
2018-09-29T04:40:49.110Z,1020.4
2018-09-29T04:41:51.507Z,1020.4
2018-09-29T04:42:53.534Z,1020.4
2018-09-29T04:43:55.543Z,1020.4
2018-09-29T04:44:57.565Z,1020.4
2018-09-29T04:45:59.587Z,1020.4
2018-09-29T04:47:01.605Z,1020.5
2018-09-29T04:48:04.002Z,1020.4
2018-09-29T04:49:06.376Z,1020.4
2018-09-29T04:50:08.330Z,1020.4
2018-09-29T04:51:10.643Z,1020.4
2018-09-29T04:52:12.667Z,1020.4
2018-09-29T04:53:15.082Z,1020.4
2018-09-29T04:54:17.104Z,1020.5
2018-09-29T04:55:19.133Z,1020.4
2018-09-29T04:56:21.144Z,1020.4
2018-09-29T04:57:23.161Z,1020.4
2018-09-29T04:58:25.502Z,1020.4
2018-09-29T04:59:27.514Z,1020.4
2018-09-29T05:00:29.590Z,1020.4
2018-09-29T05:01:31.896Z,1020.4
2018-09-29T05:02:33.917Z,1020.4
2018-09-29T05:03:35.932Z,1020.3
2018-09-29T05:04:38.342Z,1020.3
2018-09-29T05:05:40.362Z,1020.3
2018-09-29T05:06:42.380Z,1020.3
2018-09-29T05:07:44.417Z,1020.3
2018-09-29T05:08:46.435Z,1020.3
2018-09-29T05:09:48.451Z,1020.3
2018-09-29T05:10:50.752Z,1020.3
2018-09-29T05:11:52.778Z,1020.3
2018-09-29T05:12:54.795Z,1020.4
2018-09-29T05:13:56.858Z,1020.4
2018-09-29T05:14:58.850Z,1020.3
2018-09-29T05:16:00.856Z,1020.4
2018-09-29T05:17:02.882Z,1020.4
2018-09-29T05:18:04.902Z,1020.4
2018-09-29T05:19:06.918Z,1020.5
2018-09-29T05:20:08.935Z,1020.4
2018-09-29T05:21:11.346Z,1020.5
2018-09-29T05:22:13.361Z,1020.5
2018-09-29T05:23:15.461Z,1020.4
2018-09-29T05:24:18.103Z,1020.5
2018-09-29T05:25:20.119Z,1020.5
2018-09-29T05:26:22.521Z,1020.5
2018-09-29T05:27:24.888Z,1020.5
2018-09-29T05:28:26.904Z,1020.5
2018-09-29T05:29:28.928Z,1020.5
2018-09-29T05:30:30.953Z,1020.4
2018-09-29T05:31:32.964Z,1020.4
2018-09-29T05:32:35.379Z,1020.5
2018-09-29T05:33:37.396Z,1020.4
2018-09-29T05:34:39.413Z,1020.4
2018-09-29T05:35:41.427Z,1020.5
2018-09-29T05:36:43.456Z,1020.4
2018-09-29T05:37:45.465Z,1020.4
2018-09-29T05:38:47.484Z,1020.4
2018-09-29T05:39:49.503Z,1020.4
2018-09-29T05:40:51.509Z,1020.5
2018-09-29T05:41:53.543Z,1020.5
2018-09-29T05:42:56.232Z,1020.5
2018-09-29T05:43:58.540Z,1020.5
2018-09-29T05:45:00.552Z,1020.5
2018-09-29T05:46:02.865Z,1020.5
2018-09-29T05:47:05.163Z,1020.5
2018-09-29T05:48:07.228Z,1020.5
2018-09-29T05:49:09.209Z,1020.5
2018-09-29T05:50:11.223Z,1020.5
2018-09-29T05:51:13.625Z,1020.5
2018-09-29T05:52:15.647Z,1020.5
2018-09-29T05:53:17.666Z,1020.5
2018-09-29T05:54:19.676Z,1020.5
2018-09-29T05:55:21.693Z,1020.5
2018-09-29T05:56:24.008Z,1020.5
2018-09-29T05:57:26.040Z,1020.5
2018-09-29T05:58:28.050Z,1020.5
2018-09-29T05:59:30.228Z,1020.5
2018-09-29T06:00:32.330Z,1020.5
2018-09-29T06:01:34.266Z,1020.5
2018-09-29T06:02:36.286Z,1020.5
2018-09-29T06:03:38.593Z,1020.5
2018-09-29T06:04:40.604Z,1020.5
2018-09-29T06:05:43.042Z,1020.5
2018-09-29T06:06:45.454Z,1020.5
2018-09-29T06:07:47.471Z,1020.5
2018-09-29T06:08:49.477Z,1020.5
2018-09-29T06:09:51.815Z,1020.5
2018-09-29T06:10:53.828Z,1020.5
2018-09-29T06:11:55.846Z,1020.5
2018-09-29T06:12:57.874Z,1020.6
2018-09-29T06:14:00.160Z,1020.6
2018-09-29T06:15:02.186Z,1020.6
2018-09-29T06:16:04.222Z,1020.6
2018-09-29T06:17:06.257Z,1020.7
2018-09-29T06:18:08.266Z,1020.7
2018-09-29T06:19:10.579Z,1020.6
2018-09-29T06:20:13.258Z,1020.7
2018-09-29T06:21:15.270Z,1020.7
2018-09-29T06:22:17.298Z,1020.6
2018-09-29T06:23:19.607Z,1020.6
2018-09-29T06:24:21.912Z,1020.6
2018-09-29T06:25:23.939Z,1020.6
2018-09-29T06:26:26.248Z,1020.6
2018-09-29T06:27:28.646Z,1020.5
2018-09-29T06:28:30.670Z,1020.5
2018-09-29T06:29:32.685Z,1020.5
2018-09-29T06:30:34.993Z,1020.6
2018-09-29T06:31:37.016Z,1020.6
2018-09-29T06:32:39.033Z,1020.6
2018-09-29T06:33:41.443Z,1020.6
2018-09-29T06:34:43.459Z,1020.6
2018-09-29T06:35:45.484Z,1020.6
2018-09-29T06:36:47.553Z,1020.6
2018-09-29T06:37:49.523Z,1020.6
2018-09-29T06:38:51.554Z,1020.6
2018-09-29T06:39:53.862Z,1020.7
2018-09-29T06:40:55.948Z,1020.6
2018-09-29T06:41:58.382Z,1020.6
2018-09-29T06:43:00.411Z,1020.5
2018-09-29T06:44:02.431Z,1020.5
2018-09-29T06:45:04.442Z,1020.5
2018-09-29T06:46:06.472Z,1020.5
2018-09-29T06:47:08.472Z,1020.6
2018-09-29T06:48:10.993Z,1020.5
2018-09-29T06:49:12.908Z,1020.6
2018-09-29T06:50:14.938Z,1020.5
2018-09-29T06:51:17.250Z,1020.5
2018-09-29T06:52:19.277Z,1020.5
2018-09-29T06:53:21.292Z,1020.6
2018-09-29T06:54:23.363Z,1020.5
2018-09-29T06:55:25.338Z,1020.6
2018-09-29T06:56:27.347Z,1020.6
2018-09-29T06:57:29.368Z,1020.5
2018-09-29T06:58:31.396Z,1020.6
2018-09-29T06:59:33.415Z,1020.5
2018-09-29T07:00:35.427Z,1020.6
2018-09-29T07:01:37.453Z,1020.6
2018-09-29T07:02:39.468Z,1020.6
2018-09-29T07:03:41.488Z,1020.6
2018-09-29T07:04:43.518Z,1020.6
2018-09-29T07:05:45.540Z,1020.7
2018-09-29T07:06:47.557Z,1020.6
2018-09-29T07:07:49.583Z,1020.6
2018-09-29T07:08:51.599Z,1020.6
2018-09-29T07:09:53.612Z,1020.6
2018-09-29T07:10:55.626Z,1020.6
2018-09-29T07:11:57.659Z,1020.6
2018-09-29T07:12:59.768Z,1020.6
2018-09-29T07:14:02.103Z,1020.6
2018-09-29T07:15:04.118Z,1020.6
2018-09-29T07:16:06.149Z,1020.6
2018-09-29T07:17:08.168Z,1020.7
2018-09-29T07:18:10.190Z,1020.6
2018-09-29T07:19:12.219Z,1020.6
2018-09-29T07:20:14.231Z,1020.6
2018-09-29T07:21:16.268Z,1020.7
2018-09-29T07:22:18.575Z,1020.7
2018-09-29T07:23:20.896Z,1020.7
2018-09-29T07:24:22.922Z,1020.7
2018-09-29T07:25:25.341Z,1020.7
2018-09-29T07:26:27.743Z,1020.7
2018-09-29T07:27:30.044Z,1020.8
2018-09-29T07:28:32.468Z,1020.7
2018-09-29T07:29:34.478Z,1020.7
2018-09-29T07:30:36.500Z,1020.7
2018-09-29T07:31:38.812Z,1020.7
2018-09-29T07:32:40.840Z,1020.7
2018-09-29T07:33:42.868Z,1020.7
2018-09-29T07:34:44.892Z,1020.7
2018-09-29T07:35:46.915Z,1020.7
2018-09-29T07:36:49.219Z,1020.7
2018-09-29T07:37:51.253Z,1020.7
2018-09-29T07:38:53.275Z,1020.6
2018-09-29T07:39:55.292Z,1020.7
2018-09-29T07:40:57.608Z,1020.7
2018-09-29T07:41:59.627Z,1020.7
2018-09-29T07:43:01.646Z,1020.8
2018-09-29T07:44:03.969Z,1020.7
2018-09-29T07:45:05.982Z,1020.8
2018-09-29T07:46:08.403Z,1020.8
2018-09-29T07:47:10.436Z,1020.8
2018-09-29T07:48:12.755Z,1020.9
2018-09-29T07:49:15.307Z,1020.9
2018-09-29T07:50:18.119Z,1020.9
2018-09-29T07:51:20.144Z,1020.9
2018-09-29T07:52:22.164Z,1020.9
2018-09-29T07:53:24.199Z,1020.9
2018-09-29T07:54:26.216Z,1020.9
2018-09-29T07:55:28.533Z,1020.9
2018-09-29T07:56:30.552Z,1020.9
2018-09-29T07:57:33.155Z,1020.9
2018-09-29T07:58:35.174Z,1020.9
2018-09-29T07:59:37.205Z,1020.9
2018-09-29T08:00:39.235Z,1020.8
2018-09-29T08:01:41.557Z,1020.9
2018-09-29T08:02:43.591Z,1020.8
2018-09-29T08:03:45.619Z,1020.9
2018-09-29T08:04:48.034Z,1020.8
2018-09-29T08:05:50.443Z,1020.8
2018-09-29T08:06:52.757Z,1020.9
2018-09-29T08:07:54.781Z,1020.9
2018-09-29T08:08:56.813Z,1020.9
2018-09-29T08:09:58.842Z,1020.9
2018-09-29T08:11:01.242Z,1020.9
2018-09-29T08:12:03.273Z,1020.9
2018-09-29T08:13:05.312Z,1020.9
2018-09-29T08:14:07.720Z,1020.9
2018-09-29T08:15:10.038Z,1021
2018-09-29T08:16:12.076Z,1021
2018-09-29T08:17:14.785Z,1021
2018-09-29T08:18:16.824Z,1021
2018-09-29T08:19:18.849Z,1021
2018-09-29T08:20:20.878Z,1021.1
2018-09-29T08:21:22.904Z,1021.1
2018-09-29T08:22:24.942Z,1021.1
2018-09-29T08:23:26.968Z,1021.1
2018-09-29T08:24:29.087Z,1021.1
2018-09-29T08:25:31.037Z,1021.1
2018-09-29T08:26:33.073Z,1021.1
2018-09-29T08:27:35.475Z,1021.1
2018-09-29T08:28:37.507Z,1021.1
2018-09-29T08:29:39.533Z,1021
2018-09-29T08:30:41.873Z,1021
2018-09-29T08:31:43.897Z,1021.1
2018-09-29T08:32:45.937Z,1021.1
2018-09-29T08:33:47.975Z,1021
2018-09-29T08:34:49.998Z,1021
2018-09-29T08:35:52.325Z,1021
2018-09-29T08:36:54.358Z,1021
2018-09-29T08:37:56.470Z,1021
2018-09-29T08:38:58.958Z,1021
2018-09-29T08:40:01.007Z,1021
2018-09-29T08:41:03.324Z,1021
2018-09-29T08:42:05.362Z,1021
2018-09-29T08:43:07.407Z,1021
2018-09-29T08:44:09.429Z,1021
2018-09-29T08:45:11.466Z,1021
2018-09-29T08:46:13.508Z,1021.1
2018-09-29T08:47:15.543Z,1021.1
2018-09-29T08:48:17.586Z,1021.1
2018-09-29T08:49:19.630Z,1021.1
2018-09-29T08:50:22.047Z,1021.1
2018-09-29T08:51:24.090Z,1021.1
2018-09-29T08:52:26.505Z,1021.2
2018-09-29T08:53:29.191Z,1021.2
2018-09-29T08:54:31.829Z,1021.2
2018-09-29T08:55:33.861Z,1021.1
2018-09-29T08:56:35.915Z,1021.1
2018-09-29T08:57:38.259Z,1021.1
2018-09-29T08:58:40.292Z,1021.1
2018-09-29T08:59:42.349Z,1021.2
2018-09-29T09:00:44.394Z,1021.2
2018-09-29T09:01:46.443Z,1021.2
2018-09-29T09:02:48.511Z,1021.2
2018-09-29T09:03:50.628Z,1021.2
2018-09-29T09:04:52.594Z,1021.2
2018-09-29T09:05:54.637Z,1021.2
2018-09-29T09:06:56.677Z,1021.2
2018-09-29T09:07:58.987Z,1021.2
2018-09-29T09:09:01.037Z,1021.2
2018-09-29T09:10:03.084Z,1021.2
2018-09-29T09:11:05.117Z,1021.1
2018-09-29T09:12:07.562Z,1021.1
2018-09-29T09:13:09.606Z,1021.1
2018-09-29T09:14:11.655Z,1021.1
2018-09-29T09:15:13.721Z,1021.2
2018-09-29T09:16:16.052Z,1021.2
2018-09-29T09:17:18.714Z,1021.1
2018-09-29T09:18:20.769Z,1021
2018-09-29T09:19:22.808Z,1021
2018-09-29T09:20:24.840Z,1021
2018-09-29T09:21:26.896Z,1021
2018-09-29T09:22:28.939Z,1021.1
2018-09-29T09:23:31.060Z,1021
2018-09-29T09:24:33.405Z,1021.1
2018-09-29T09:25:35.439Z,1021
2018-09-29T09:26:37.477Z,1021
2018-09-29T09:27:39.815Z,1021
2018-09-29T09:28:41.855Z,1021
2018-09-29T09:29:43.974Z,1020.9
2018-09-29T09:30:45.947Z,1020.9
2018-09-29T09:31:47.991Z,1020.9
2018-09-29T09:32:50.335Z,1020.9
2018-09-29T09:33:52.720Z,1020.9
2018-09-29T09:34:55.146Z,1020.8
2018-09-29T09:35:57.236Z,1020.8
2018-09-29T09:36:59.280Z,1020.9
2018-09-29T09:38:01.320Z,1020.9
2018-09-29T09:39:03.679Z,1020.8
2018-09-29T09:40:05.719Z,1020.8
2018-09-29T09:41:07.771Z,1020.8
2018-09-29T09:42:09.819Z,1020.9
2018-09-29T09:43:12.243Z,1020.9
2018-09-29T09:44:14.274Z,1020.9
2018-09-29T09:45:16.312Z,1020.8
2018-09-29T09:46:18.354Z,1020.8
2018-09-29T09:47:20.408Z,1020.8
2018-09-29T09:48:22.450Z,1020.8
2018-09-29T09:49:24.522Z,1020.8
2018-09-29T09:50:27.093Z,1020.8
2018-09-29T09:51:29.132Z,1020.8
2018-09-29T09:52:31.177Z,1020.7
2018-09-29T09:53:33.221Z,1020.8
2018-09-29T09:54:35.559Z,1020.7
2018-09-29T09:55:37.604Z,1020.8
2018-09-29T09:56:40.027Z,1020.7
2018-09-29T09:57:42.668Z,1020.7
2018-09-29T09:58:44.704Z,1020.7
2018-09-29T09:59:46.743Z,1020.7
2018-09-29T10:00:49.486Z,1020.7
2018-09-29T10:01:51.536Z,1020.7
2018-09-29T10:02:53.591Z,1020.7
2018-09-29T10:03:55.796Z,1020.7
2018-09-29T10:04:58.736Z,1020.7
2018-09-29T10:06:00.769Z,1020.6
2018-09-29T10:07:03.108Z,1020.6
2018-09-29T10:08:05.219Z,1020.6
2018-09-29T10:09:07.275Z,1020.5
2018-09-29T10:10:09.310Z,1020.6
2018-09-29T10:11:11.367Z,1020.5
2018-09-29T10:12:14.081Z,1020.6
2018-09-29T10:13:16.117Z,1020.6
2018-09-29T10:14:18.169Z,1020.5
2018-09-29T10:15:20.592Z,1020.5
2018-09-29T10:16:22.633Z,1020.5
2018-09-29T10:17:25.067Z,1020.5
2018-09-29T10:18:27.405Z,1020.4
2018-09-29T10:19:29.749Z,1020.5
2018-09-29T10:20:31.815Z,1020.5
2018-09-29T10:21:33.886Z,1020.4
2018-09-29T10:22:35.921Z,1020.4
2018-09-29T10:23:37.976Z,1020.5
2018-09-29T10:24:40.405Z,1020.5
2018-09-29T10:25:42.439Z,1020.5
2018-09-29T10:26:44.818Z,1020.5
2018-09-29T10:27:47.032Z,1020.5
2018-09-29T10:28:49.381Z,1020.5
2018-09-29T10:29:51.430Z,1020.5
2018-09-29T10:30:53.464Z,1020.4
2018-09-29T10:31:55.546Z,1020.5
2018-09-29T10:32:57.583Z,1020.4
2018-09-29T10:34:00.316Z,1020.5
2018-09-29T10:35:02.467Z,1020.4
2018-09-29T10:36:04.551Z,1020.5
2018-09-29T10:37:06.713Z,1020.4
2018-09-29T10:38:09.186Z,1020.4
2018-09-29T10:39:11.234Z,1020.5
2018-09-29T10:40:13.264Z,1020.5
2018-09-29T10:41:15.307Z,1020.5
2018-09-29T10:42:17.342Z,1020.5
2018-09-29T10:43:19.387Z,1020.4
2018-09-29T10:44:21.423Z,1020.3
2018-09-29T10:45:23.872Z,1020.3
2018-09-29T10:46:25.948Z,1020.3
2018-09-29T10:47:27.993Z,1020.3
2018-09-29T10:48:30.084Z,1020.3
2018-09-29T10:49:32.150Z,1020.3
2018-09-29T10:50:34.204Z,1020.3
2018-09-29T10:51:36.244Z,1020.3
2018-09-29T10:52:38.341Z,1020.3
2018-09-29T10:53:40.378Z,1020.3
2018-09-29T10:54:42.427Z,1020.3
2018-09-29T10:55:44.465Z,1020.3
2018-09-29T10:56:46.793Z,1020.3
2018-09-29T10:57:48.835Z,1020.3
2018-09-29T10:58:50.875Z,1020.2
2018-09-29T10:59:53.124Z,1020.2
2018-09-29T11:00:55.163Z,1020.2
2018-09-29T11:01:57.199Z,1020.2
2018-09-29T11:02:59.257Z,1020.2
2018-09-29T11:04:01.292Z,1020.2
2018-09-29T11:05:04.288Z,1020.2
2018-09-29T11:06:06.177Z,1020.2
2018-09-29T11:07:08.226Z,1020.2
2018-09-29T11:08:10.264Z,1020.2
2018-09-29T11:09:12.609Z,1020.1
2018-09-29T11:10:14.648Z,1020.1
2018-09-29T11:11:16.684Z,1020.1
2018-09-29T11:12:19.067Z,1020.1
2018-09-29T11:13:21.167Z,1020.1
2018-09-29T11:14:23.872Z,1020
2018-09-29T11:15:26.269Z,1020
2018-09-29T11:16:28.316Z,1020
2018-09-29T11:17:30.362Z,1020
2018-09-29T11:18:32.421Z,1020
2018-09-29T11:19:34.511Z,1020
2018-09-29T11:20:36.550Z,1019.9
2018-09-29T11:21:38.616Z,1019.9
2018-09-29T11:22:40.656Z,1020
2018-09-29T11:23:42.973Z,1020
2018-09-29T11:24:45.400Z,1020
2018-09-29T11:25:47.446Z,1020
2018-09-29T11:26:49.479Z,1019.9
2018-09-29T11:27:51.614Z,1019.9
2018-09-29T11:28:53.859Z,1019.9
2018-09-29T11:29:55.891Z,1019.8
2018-09-29T11:30:58.327Z,1019.8
2018-09-29T11:32:00.769Z,1019.9
2018-09-29T11:33:02.814Z,1019.8
2018-09-29T11:34:04.854Z,1019.8
2018-09-29T11:35:07.287Z,1019.8
2018-09-29T11:36:09.615Z,1019.8
2018-09-29T11:37:11.645Z,1019.8
2018-09-29T11:38:13.695Z,1019.8
2018-09-29T11:39:16.061Z,1019.8
2018-09-29T11:40:18.889Z,1019.8
2018-09-29T11:41:21.218Z,1019.8
2018-09-29T11:42:23.260Z,1019.8
2018-09-29T11:43:25.594Z,1019.7
2018-09-29T11:44:27.626Z,1019.8
2018-09-29T11:45:29.678Z,1019.7
2018-09-29T11:46:31.991Z,1019.8
2018-09-29T11:47:34.320Z,1019.8
2018-09-29T11:48:36.352Z,1019.8
2018-09-29T11:49:38.394Z,1019.7
2018-09-29T11:50:40.428Z,1019.7
2018-09-29T11:51:42.471Z,1019.7
2018-09-29T11:52:44.523Z,1019.6
2018-09-29T11:53:46.553Z,1019.7
2018-09-29T11:54:48.603Z,1019.7
2018-09-29T11:55:50.927Z,1019.7
2018-09-29T11:56:53.862Z,1019.6
2018-09-29T11:57:55.901Z,1019.6
2018-09-29T11:58:58.349Z,1019.6
2018-09-29T12:00:00.379Z,1019.6
2018-09-29T12:01:02.481Z,1019.5
2018-09-29T12:02:04.820Z,1019.5
2018-09-29T12:03:07.255Z,1019.5
2018-09-29T12:04:09.289Z,1019.5
2018-09-29T12:05:11.619Z,1019.5
2018-09-29T12:06:13.705Z,1019.4
2018-09-29T12:07:15.768Z,1019.4
2018-09-29T12:08:18.181Z,1019.4
2018-09-29T12:09:20.876Z,1019.4
2018-09-29T12:10:23.213Z,1019.4
2018-09-29T12:11:25.246Z,1019.4
2018-09-29T12:12:27.278Z,1019.4
2018-09-29T12:13:29.306Z,1019.3
2018-09-29T12:14:31.627Z,1019.3
2018-09-29T12:15:33.670Z,1019.2
2018-09-29T12:16:35.994Z,1019.3
2018-09-29T12:17:38.023Z,1019.3
2018-09-29T12:18:40.074Z,1019.3
2018-09-29T12:19:42.379Z,1019.3
2018-09-29T12:20:44.418Z,1019.2
2018-09-29T12:21:46.449Z,1019.2
2018-09-29T12:22:48.874Z,1019.2
2018-09-29T12:23:51.197Z,1019.2
2018-09-29T12:24:53.249Z,1019.2
2018-09-29T12:25:55.289Z,1019.2
2018-09-29T12:26:57.313Z,1019.1
2018-09-29T12:27:59.362Z,1019.1
2018-09-29T12:29:01.400Z,1019.1
2018-09-29T12:30:03.428Z,1019.1
2018-09-29T12:31:05.460Z,1019.1
2018-09-29T12:32:08.288Z,1019.1
2018-09-29T12:33:10.318Z,1019
2018-09-29T12:34:12.359Z,1019.1
2018-09-29T12:35:14.397Z,1019.1
2018-09-29T12:36:16.428Z,1019.1
2018-09-29T12:37:18.799Z,1019.1
2018-09-29T12:38:20.799Z,1019
2018-09-29T12:39:22.822Z,1019
2018-09-29T12:40:24.864Z,1019
2018-09-29T12:41:26.904Z,1019
2018-09-29T12:42:28.934Z,1019
2018-09-29T12:43:30.980Z,1018.9
2018-09-29T12:44:33.390Z,1018.9
2018-09-29T12:45:35.346Z,1018.9
2018-09-29T12:46:37.673Z,1018.9
2018-09-29T12:47:39.772Z,1018.8
2018-09-29T12:48:41.738Z,1018.8
2018-09-29T12:49:43.771Z,1018.8
2018-09-29T12:50:46.130Z,1018.8
2018-09-29T12:51:48.164Z,1018.8
2018-09-29T12:52:50.545Z,1018.8
2018-09-29T12:53:52.578Z,1018.8
2018-09-29T12:54:54.619Z,1018.7
2018-09-29T12:55:56.940Z,1018.7
2018-09-29T12:56:58.979Z,1018.7
2018-09-29T12:58:01.007Z,1018.8
2018-09-29T12:59:03.143Z,1018.8
2018-09-29T13:00:05.542Z,1018.7
2018-09-29T13:01:07.883Z,1018.7